Information Last Ob Photographs Meteogram Network Table Neighbors Monthly Summaries Observation History Wind Roses Custom Wind Roses Data Calendar Satellite Cloud Product Download

26 October 2021 Observation History, [AUS] Austin Bergstrom, timezone: America/Chicago

Select Date: Time Order:

Show METARs   Show High Frequency MADIS

Previous Day
Time Wind
(mph)
Vis.
(mi.)
Sky Cond.
(100s ft)
Present Wx Temperature (ºF) Relative
Humidity
Pressure Snow
Depth
(in)
Precipitation (in.)
Air Dwpt Feels Like 6 hour altimeter
(in.)
sea level
(mb)
1 hr 3 hr 6 hr
Max.Min.
12:53 AMSSW 510 FEW200
FEW250
706970 80 68 97% 29.931012.60
KAUS 260553Z 20004KT 10SM FEW200 FEW250 21/21 A2993 RMK AO2 SLP126 T02110206 10267 20200 403110200 58007
12:50 AMSSW 510 % 29.93
KAUS 260550Z AUTO 20004KT 10SM 21/21 A2993 RMK T02100210 MADISHF
12:45 AMSSW 210 % 29.93
KAUS 260545Z AUTO 20002KT 10SM 21/20 A2993 RMK T02100200 MADISHF
12:40 AMSSW 210 CLR
% 29.93
KAUS 260540Z AUTO 19002KT 10SM CLR 21/20 A2993 RMK T02100200 MADISHF
12:35 AMCalm10 CLR
% 29.93
KAUS 260535Z AUTO 00000KT 10SM CLR 21/21 A2993 RMK T02100210 MADISHF
12:30 AMCalm10 CLR
% 29.94
KAUS 260530Z AUTO 00000KT 10SM CLR 21/20 A2994 RMK T02100200 MADISHF
12:25 AMCalm10 CLR
% 29.94
KAUS 260525Z AUTO 00000KT 10SM CLR 21/20 A2994 RMK T02100200 MADISHF
12:20 AMSSW 210 CLR
% 29.94
KAUS 260520Z AUTO 19002KT 10SM CLR 21/21 A2994 RMK T02100210 MADISHF
12:15 AMS 210 CLR
% 29.94
KAUS 260515Z AUTO 18002KT 10SM CLR 21/21 A2994 RMK T02100210 MADISHF
12:10 AMS 210 CLR
% 29.94
KAUS 260510Z AUTO 18002KT 10SM CLR 21/21 A2994 RMK T02100210 MADISHF
12:05 AMS 210 CLR
% 29.94
KAUS 260505Z AUTO 18002KT 10SM CLR 21/21 A2994 RMK T02100210 MADISHF
12:00 AMSSW 210 CLR
% 29.94
KAUS 260500Z AUTO 19002KT 10SM CLR 21/21 A2994 RMK T02100210 MADISHF

The IEM API webservice that provided data to this page. For more details, see documentation.

Data Notes

  • For recent years, this page also optionally shows observations from the MADIS High Frequency METAR dataset. This dataset had a problem with temperatures detailed here.